Time;durP1;ratioP1;P1;durP2;ratioP2;P2;SDS_P1;SDS_P2;PMS_P1;PMS_P2;Temp;Humidity;BMP_temperature;BMP_pressure;BME280_temperature;BME280_humidity;BME280_pressure;Samples;Min_cycle;Max_cycle;Signal;HPM_P1;HPM_P2
2021/03/09 00:00:44;;;;;;;15.35;11.27;;;-3.20;1.40;;;-2.22;99.63;95477.05;663628;211;31535;-73
2021/03/09 00:03:13;;;;;;;15.27;9.67;;;-3.20;1.40;;;-2.18;99.67;95471.75;669889;211;23445;-73
2021/03/09 00:05:42;;;;;;;12.98;11.50;;;-3.20;1.40;;;-2.23;100.00;95470.34;664482;211;32002;-73
2021/03/09 00:08:11;;;;;;;10.70;9.60;;;-3.20;1.40;;;-2.21;100.00;95470.70;670009;211;23400;-73
2021/03/09 00:10:40;;;;;;;14.18;11.15;;;-3.30;1.40;;;-2.16;100.00;95469.14;663431;211;31602;-72
2021/03/09 00:13:09;;;;;;;10.20;9.10;;;-3.30;1.40;;;-2.16;100.00;95459.97;666471;211;23463;-73
2021/03/09 00:15:38;;;;;;;14.00;12.52;;;-3.30;1.40;;;-2.05;99.98;95461.46;635942;220;32101;-72
2021/03/09 00:18:07;;;;;;;11.97;10.17;;;-3.30;1.40;;;-2.17;100.00;95457.95;649363;219;23870;-73
2021/03/09 00:20:36;;;;;;;15.98;11.90;;;-3.30;1.40;;;-2.21;100.00;95458.70;636235;220;42700;-73
2021/03/09 00:23:05;;;;;;;13.73;12.32;;;-3.30;1.40;;;-2.16;100.00;95459.31;663817;211;42089;-73
2021/03/09 00:25:34;;;;;;;13.30;9.97;;;-3.30;1.40;;;-2.23;100.00;95463.80;663166;211;23518;-73
2021/03/09 00:28:04;;;;;;;13.48;12.07;;;-3.30;1.40;;;-2.29;100.00;95458.52;649431;215;31717;-73
2021/03/09 00:30:33;;;;;;;13.17;11.70;;;-3.40;1.40;;;-2.24;100.00;95455.30;655057;216;27675;-73
2021/03/09 00:35:51;;;;;;;16.67;13.82;;;-3.40;1.40;;;-2.47;100.00;95451.77;618698;225;31957;-73
2021/03/09 00:38:20;;;;;;;17.60;12.83;;;-3.40;1.40;;;-2.58;100.00;95453.86;615263;230;32483;-73
2021/03/09 00:40:49;;;;;;;13.90;12.40;;;-3.50;1.40;;;-2.39;100.00;95453.37;608566;230;43734;-73
2021/03/09 00:43:18;;;;;;;13.00;11.57;;;-3.50;1.40;;;-2.42;100.00;95450.64;613219;229;23534;-73
2021/03/09 00:45:47;;;;;;;13.32;11.90;;;-3.50;1.40;;;-2.44;100.00;95446.24;608789;230;32657;-73
2021/03/09 00:48:16;;;;;;;12.53;10.50;;;-3.60;1.40;;;-2.53;100.00;95448.09;612537;230;23586;-75
2021/03/09 00:50:45;;;;;;;14.68;12.68;;;-3.70;1.40;;;-2.66;99.99;95442.47;608256;229;32376;-73
2021/03/09 00:53:15;;;;;;;14.97;12.00;;;-3.70;1.40;;;-2.71;100.00;95441.56;614474;230;23526;-74
2021/03/09 00:55:44;;;;;;;14.07;12.45;;;-3.70;1.40;;;-2.41;100.00;95436.63;607637;230;32129;-73
2021/03/09 00:58:13;;;;;;;15.70;13.35;;;-3.60;1.40;;;-2.39;100.00;95436.96;608443;230;32085;-73
2021/03/09 01:00:42;;;;;;;14.10;11.83;;;-3.60;1.40;;;-2.47;100.00;95436.33;611850;230;26742;-73
2021/03/09 01:03:11;;;;;;;14.38;12.50;;;-3.60;1.40;;;-2.55;100.00;95435.20;608617;230;32371;-72
2021/03/09 01:05:40;;;;;;;15.80;13.00;;;-3.60;1.40;;;-2.46;100.00;95431.47;607393;230;32793;-72
2021/03/09 01:08:09;;;;;;;14.90;12.20;;;-3.70;1.40;;;-2.49;100.00;95435.05;609213;230;32230;-72
2021/03/09 01:10:38;;;;;;;13.90;12.40;;;-3.70;1.40;;;-2.46;100.00;95435.35;608361;229;32406;-73
2021/03/09 01:13:07;;;;;;;11.57;10.37;;;-3.70;1.40;;;-2.63;100.00;95429.64;614065;230;25924;-73
2021/03/09 01:15:36;;;;;;;12.13;10.82;;;-3.90;1.40;;;-2.62;100.00;95424.16;606675;230;32477;-73
2021/03/09 01:18:05;;;;;;;14.23;11.70;;;-3.80;1.40;;;-2.68;100.00;95425.12;607994;230;32195;-72
2021/03/09 01:20:35;;;;;;;13.90;12.40;;;-3.90;1.40;;;-2.87;100.00;95421.50;612220;230;24633;-72
2021/03/09 01:23:04;;;;;;;13.32;11.30;;;-4.00;1.40;;;-2.89;100.00;95420.50;609017;230;32266;-73
2021/03/09 01:25:33;;;;;;;12.80;10.40;;;-4.00;1.40;;;-2.98;100.00;95414.80;607954;230;25670;-73
2021/03/09 01:28:02;;;;;;;15.10;11.68;;;-4.00;1.40;;;-2.90;100.00;95410.56;597602;235;32371;-73
2021/03/09 01:30:31;;;;;;;14.20;9.40;;;-4.00;1.40;;;-2.93;100.00;95408.94;603304;234;23663;-73
2021/03/09 01:33:00;;;;;;;12.25;10.90;;;-4.00;1.40;;;-2.91;100.00;95401.84;596428;235;32806;-73
2021/03/09 01:35:51;;;;;;;13.38;11.88;;;-4.10;1.40;;;-2.96;100.00;95400.05;645945;216;31763;-73
2021/03/09 01:38:20;;;;;;;11.87;10.67;;;-4.10;1.40;;;-3.04;100.00;95395.66;641226;221;23576;-73
2021/03/09 01:40:49;;;;;;;16.08;13.13;;;-4.10;1.40;;;-2.87;100.00;95394.52;649679;216;31611;-73
2021/03/09 01:43:18;;;;;;;34.78;23.23;;;-4.00;1.40;;;-2.94;100.00;95390.98;649413;215;31653;-73
2021/03/09 01:45:47;;;;;;;20.00;14.83;;;-4.20;1.40;;;-2.84;100.00;95390.42;668175;211;25595;-73
2021/03/09 01:48:16;;;;;;;25.60;17.65;;;-4.00;1.40;;;-3.01;100.00;95384.91;662595;211;31518;-72
2021/03/09 01:50:45;;;;;;;17.30;12.50;;;-4.10;1.40;;;-3.14;100.00;95382.14;669054;211;23456;-72
2021/03/09 01:53:14;;;;;;;18.65;13.77;;;-4.20;1.40;;;-3.18;100.00;95380.31;662273;211;31470;-73
2021/03/09 01:55:43;;;;;;;15.13;13.20;;;-4.30;1.40;;;-3.16;100.00;95377.55;664070;211;32057;-72
2021/03/09 01:58:12;;;;;;;17.02;13.43;;;-4.30;1.40;;;-3.15;100.00;95377.16;663709;211;31563;-75
2021/03/09 02:00:41;;;;;;;16.17;11.37;;;-4.20;1.40;;;-3.18;100.00;95371.83;669960;211;23569;-72
2021/03/09 02:03:11;;;;;;;13.77;12.32;;;-4.20;1.40;;;-3.12;100.00;95365.09;661982;211;42067;-72
2021/03/09 02:05:40;;;;;;;13.43;12.10;;;-4.30;1.40;;;-3.26;100.00;95369.73;669977;211;29783;-72
2021/03/09 02:10:43;;;;;;;15.80;13.48;;;-4.50;1.40;;;-3.17;100.00;95356.27;619254;225;32147;-73
2021/03/09 02:13:36;;;;;;;13.13;10.53;;;-4.30;1.40;;;-3.12;100.00;95357.46;615295;230;23537;-73
2021/03/09 02:16:11;;;;;;;17.58;13.27;;;-4.20;1.40;;;-3.17;100.00;95353.05;609132;230;32213;-73
2021/03/09 02:18:46;;;;;;;15.05;13.10;;;-4.20;1.40;;;-3.25;100.00;95351.55;607358;229;32476;-73
2021/03/09 02:24:29;;;;;;;15.15;13.07;;;-4.50;1.40;;;-3.25;100.00;95351.81;646459;216;31627;-72
2021/03/09 02:27:26;;;;;;;15.40;13.60;;;-4.40;1.40;;;-3.45;100.00;95350.77;647036;216;31747;-73
2021/03/09 02:30:09;;;;;;;13.07;11.77;;;-4.60;1.40;;;-3.53;100.00;95351.07;640678;221;23527;-73
2021/03/09 02:36:04;;;;;;;14.95;12.60;;;-4.70;1.40;;;-3.61;100.00;95349.68;645940;216;32261;-73
2021/03/09 02:38:37;;;;;;;15.05;13.30;;;-4.70;1.40;;;-3.55;100.00;95341.85;635512;221;31974;-73
2021/03/09 02:41:06;;;;;;;13.47;12.07;;;-4.60;1.40;;;-3.67;100.00;95339.90;643117;220;26785;-73
2021/03/09 02:43:35;;;;;;;14.23;12.50;;;-4.70;1.40;;;-3.70;100.00;95336.78;664087;211;32126;-73
2021/03/09 02:46:04;;;;;;;15.00;12.90;;;-4.70;1.40;;;-3.66;100.00;95332.98;664774;211;31582;-73
2021/03/09 02:48:34;;;;;;;12.83;10.97;;;-4.60;1.40;;;-3.62;100.00;95335.52;654382;215;24687;-73
2021/03/09 02:51:03;;;;;;;14.38;12.88;;;-4.60;1.40;;;-3.54;100.00;95335.00;649318;215;31924;-73
2021/03/09 02:53:32;;;;;;;15.55;12.20;;;-4.60;1.40;;;-3.58;100.00;95335.66;662956;211;31906;-70
2021/03/09 02:56:02;;;;;;;14.93;11.27;;;-4.70;1.40;;;-3.65;100.00;95332.40;668407;211;23425;-71
2021/03/09 02:58:31;;;;;;;16.20;13.10;;;-4.60;1.40;;;-3.75;100.00;95332.11;664486;211;31458;-72
2021/03/09 03:01:00;;;;;;;17.50;14.48;;;-4.70;1.40;;;-3.78;100.00;95332.27;663971;211;31565;-71
2021/03/09 03:03:29;;;;;;;13.07;10.93;;;-4.70;1.40;;;-3.78;100.00;95333.25;668998;211;24527;-72
2021/03/09 03:05:58;;;;;;;13.77;12.13;;;-4.80;1.40;;;-3.71;100.00;95334.44;646417;216;31821;-72
2021/03/09 03:08:27;;;;;;;13.60;12.17;;;-4.80;1.40;;;-3.77;100.00;95334.48;655566;216;23437;-72
2021/03/09 03:10:56;;;;;;;17.77;14.00;;;-4.90;1.40;;;-3.85;100.00;95338.06;662819;211;31462;-72
2021/03/09 03:13:25;;;;;;;16.05;13.45;;;-5.00;1.40;;;-3.69;100.00;95337.34;650349;216;31743;-72
2021/03/09 03:15:54;;;;;;;17.70;14.23;;;-4.80;1.40;;;-3.75;100.00;95339.86;663374;211;31516;-72
2021/03/09 03:18:24;;;;;;;13.93;11.83;;;-4.90;1.40;;;-3.61;100.00;95340.45;669353;211;23411;-72
2021/03/09 03:20:53;;;;;;;14.23;12.73;;;-4.80;1.40;;;-3.74;100.00;95340.93;634812;220;31876;-72
2021/03/09 03:23:23;;;;;;;15.55;13.85;;;-4.90;1.40;;;-3.77;100.00;95338.39;663468;211;31825;-72
2021/03/09 03:25:52;;;;;;;15.18;13.57;;;-5.00;1.40;;;-3.75;100.00;95342.02;629383;220;31986;-72
2021/03/09 03:28:21;;;;;;;15.90;11.43;;;-4.80;1.40;;;-3.88;100.00;95338.86;655640;215;25552;-72
2021/03/09 03:30:50;;;;;;;15.48;13.35;;;-4.80;1.40;;;-3.62;100.00;95340.63;651264;216;31858;-72
2021/03/09 03:35:51;;;;;;;15.03;12.90;;;-4.70;1.40;;;-3.73;100.00;95334.78;645638;216;42692;-73
2021/03/09 03:38:20;;;;;;;12.23;10.80;;;-4.70;1.40;;;-3.84;100.00;95339.64;642310;221;24515;-73
2021/03/09 03:40:50;;;;;;;14.87;12.77;;;-4.80;1.40;;;-3.79;100.00;95332.88;636058;220;31783;-72
2021/03/09 03:43:19;;;;;;;17.30;14.60;;;-4.80;1.40;;;-3.74;100.00;95337.59;635067;220;31928;-73
2021/03/09 03:45:48;;;;;;;14.17;11.23;;;-4.70;1.40;;;-3.85;100.00;95338.44;643179;220;23501;-73
2021/03/09 03:48:17;;;;;;;14.25;12.75;;;-4.80;1.40;;;-3.91;100.00;95332.34;663704;211;31469;-73
2021/03/09 03:50:46;;;;;;;16.75;14.13;;;-4.90;1.40;;;-3.85;100.00;95334.03;664653;211;31448;-72
2021/03/09 03:53:19;;;;;;;15.80;12.30;;;-4.80;1.40;;;-3.92;100.00;95334.42;668528;211;24522;-73
2021/03/09 03:56:06;;;;;;;16.12;13.90;;;-4.90;1.40;;;-3.73;100.00;95338.95;636730;220;31776;-73
2021/03/09 03:58:50;;;;;;;16.87;14.27;;;-4.80;1.40;;;-3.87;100.00;95326.71;647183;216;31649;-73
2021/03/09 04:01:20;;;;;;;13.30;11.30;;;-4.90;1.40;;;-4.07;100.00;95326.16;641805;221;23534;-73
2021/03/09 04:03:50;;;;;;;11.07;9.87;;;-5.00;1.40;;;-4.15;100.00;95323.77;641407;221;24552;-73
2021/03/09 04:06:19;;;;;;;14.50;13.00;;;-5.20;1.40;;;-4.15;100.00;95321.06;634110;220;32527;-73
2021/03/09 04:08:48;;;;;;;16.87;14.18;;;-5.10;1.40;;;-4.12;100.00;95324.27;634786;220;32277;-73
2021/03/09 04:11:17;;;;;;;16.90;14.02;;;-5.00;1.40;;;-4.09;100.00;95323.41;636026;220;31802;-73
2021/03/09 04:13:46;;;;;;;14.53;11.50;;;-5.00;1.40;;;-4.21;100.00;95320.97;640334;221;23500;-72
2021/03/09 04:16:16;;;;;;;17.10;13.50;;;-5.10;1.40;;;-4.25;100.00;95319.38;634438;220;31878;-73
2021/03/09 04:21:19;;;;;;;17.00;15.23;;;-5.00;1.40;;;-3.90;100.00;95310.38;646731;212;31687;-73
2021/03/09 04:23:48;;;;;;;14.37;12.10;;;-5.00;1.40;;;-3.88;100.00;95310.55;640003;221;23506;-73
2021/03/09 04:26:17;;;;;;;14.80;12.65;;;-4.90;1.40;;;-3.93;100.00;95306.06;626091;221;32413;-73
2021/03/09 04:28:46;;;;;;;16.12;14.45;;;-5.00;1.40;;;-3.91;100.00;95303.22;623924;225;32587;-73
2021/03/09 04:31:16;;;;;;;14.73;12.03;;;-5.00;1.40;;;-3.93;100.00;95301.34;642766;220;25605;-72
2021/03/09 04:35:51;;;;;;;14.02;12.52;;;-5.00;1.40;;;-3.98;100.00;95303.16;619547;226;43196;-73
2021/03/09 04:38:20;;;;;;;12.77;11.57;;;-5.10;1.40;;;-4.08;100.00;95305.37;615157;229;25683;-72
2021/03/09 04:40:49;;;;;;;15.75;12.98;;;-5.20;1.40;;;-4.28;99.84;95303.80;611116;229;32178;-73
2021/03/09 04:43:18;;;;;;;15.60;14.00;;;-5.30;1.40;;;-4.20;100.00;95307.24;624316;225;32663;-73
2021/03/09 04:45:48;;;;;;;13.37;11.53;;;-5.30;1.40;;;-4.38;100.00;95310.14;619827;229;24612;-73
2021/03/09 04:48:18;;;;;;;15.07;13.10;;;-5.40;1.40;;;-4.43;100.00;95314.53;622940;225;32140;-73
2021/03/09 04:50:47;;;;;;;15.88;13.55;;;-5.40;1.40;;;-4.47;100.00;95312.47;611659;230;32305;-73
2021/03/09 04:53:16;;;;;;;15.23;12.90;;;-5.40;1.40;;;-4.50;100.00;95315.91;627765;225;24613;-73
2021/03/09 04:55:45;;;;;;;15.45;13.27;;;-5.50;1.40;;;-4.50;100.00;95313.42;621365;224;31946;-73
2021/03/09 04:58:14;;;;;;;16.90;13.93;;;-5.50;1.40;;;-4.40;100.00;95313.18;622002;225;32096;-73
2021/03/09 05:00:43;;;;;;;12.60;10.70;;;-5.40;1.40;;;-4.49;100.00;95310.28;628327;225;30970;-73
2021/03/09 05:03:12;;;;;;;15.75;13.40;;;-5.40;1.40;;;-4.42;100.00;95310.50;622798;225;31981;-72
2021/03/09 05:08:18;;;;;;;19.55;15.65;;;-5.30;1.40;;;-4.41;100.00;95312.05;646311;216;31876;-73
2021/03/09 05:10:47;;;;;;;13.43;12.07;;;-5.40;1.40;;;-4.32;100.00;95312.59;640368;221;24538;-73
2021/03/09 05:13:16;;;;;;;18.33;15.10;;;-5.30;1.40;;;-4.25;100.00;95310.20;635614;221;31914;-73
2021/03/09 05:15:46;;;;;;;20.37;16.40;;;-5.30;1.40;;;-4.22;100.00;95311.42;635624;221;32432;-72
2021/03/09 05:18:15;;;;;;;25.60;18.60;;;-5.30;1.40;;;-4.30;100.00;95310.09;634800;220;31877;-72
2021/03/09 05:20:44;;;;;;;19.90;14.67;;;-5.20;1.40;;;-4.36;100.00;95312.44;641555;220;23460;-73
2021/03/09 05:23:13;;;;;;;22.05;17.25;;;-5.20;1.40;;;-4.13;100.00;95310.41;635805;220;31925;-73
2021/03/09 05:25:42;;;;;;;24.70;18.93;;;-5.20;1.40;;;-4.05;100.00;95311.41;634875;221;31845;-72
2021/03/09 05:28:11;;;;;;;26.35;20.50;;;-5.10;1.40;;;-4.08;100.00;95310.98;647962;216;31670;-73
2021/03/09 05:30:40;;;;;;;17.80;15.70;;;-5.10;1.40;;;-4.04;100.00;95313.83;650337;217;23445;-73
2021/03/09 05:35:51;;;;;;;27.45;20.12;;;-4.90;1.40;;;-3.91;100.00;95313.92;646993;216;42826;-73
2021/03/09 05:38:20;;;;;;;31.42;21.25;;;-4.80;1.40;;;-3.78;100.00;95313.74;635183;220;31794;-73
2021/03/09 05:40:49;;;;;;;57.17;21.53;;;-4.80;1.40;;;-3.62;100.00;95317.44;641332;220;23470;-73
2021/03/09 05:43:18;;;;;;;80.47;30.95;;;-4.60;1.40;;;-3.43;100.00;95311.41;634816;221;31858;-73
2021/03/09 05:45:47;;;;;;;49.30;30.10;;;-4.40;1.40;;;-3.30;100.00;95315.36;635961;220;31886;-73
2021/03/09 05:48:16;;;;;;;46.00;22.77;;;-4.40;1.40;;;-3.48;100.00;95317.19;640225;220;23536;-73
2021/03/09 05:50:45;;;;;;;52.83;27.50;;;-4.50;1.40;;;-3.41;100.00;95318.03;637320;220;31758;-73
2021/03/09 05:53:15;;;;;;;60.05;30.17;;;-4.50;1.40;;;-3.23;100.00;95317.03;638766;219;31897;-73
2021/03/09 05:55:44;;;;;;;33.50;21.40;;;-4.40;1.40;;;-3.28;100.00;95328.66;645223;220;23452;-73
2021/03/09 05:58:13;;;;;;;38.70;26.15;;;-4.40;1.40;;;-3.28;100.00;95322.09;662361;211;31652;-73
2021/03/09 06:00:42;;;;;;;39.45;28.48;;;-4.40;1.40;;;-3.08;100.00;95320.63;662219;211;31372;-73
2021/03/09 06:03:11;;;;;;;31.33;19.00;;;-4.20;1.40;;;-3.08;100.00;95320.13;642043;220;33367;-73
2021/03/09 06:05:40;;;;;;;33.72;26.00;;;-4.20;1.40;;;-2.93;100.00;95322.23;644013;219;31710;-72
2021/03/09 06:08:09;;;;;;;62.30;29.67;;;-4.10;1.40;;;-2.56;100.00;95319.72;648000;216;31672;-76
2021/03/09 06:10:38;;;;;;;63.97;24.33;;;-3.80;1.40;;;-2.33;100.00;95322.72;644571;220;23456;-76
2021/03/09 06:13:07;;;;;;;57.95;31.80;;;-3.70;1.40;;;-2.33;100.00;95322.08;635344;220;32293;-76
2021/03/09 06:15:59;;;;;;;74.37;31.37;;;-3.60;1.40;;;-2.18;100.00;95330.02;648513;216;31959;-77
2021/03/09 06:18:28;;;;;;;54.70;30.80;;;-3.50;1.40;;;-2.08;100.00;95333.25;662906;211;31424;-76
2021/03/09 06:21:14;;;;;;;73.18;32.05;;;-3.50;1.40;;;-2.04;100.00;95331.98;661560;211;32390;-77
2021/03/09 06:23:43;;;;;;;103.75;33.85;;;-3.40;1.40;;;-1.59;99.82;95332.28;662261;211;31533;-77
2021/03/09 06:26:30;;;;;;;61.60;28.03;;;-3.20;1.40;;;-1.49;99.31;95334.95;660790;211;23453;-77
2021/03/09 06:29:07;;;;;;;183.95;39.78;;;-3.10;1.40;;;-1.28;98.84;95337.97;640859;220;31646;-77
2021/03/09 06:31:36;;;;;;;87.77;25.43;;;-3.00;1.40;;;-1.57;100.00;95333.13;658892;216;23495;-78
2021/03/09 06:36:00;;;;;;;76.10;30.08;;;-3.00;1.40;;;-1.25;100.00;95332.61;645913;216;31708;-72
2021/03/09 06:38:27;;;;;;;151.30;36.37;;;-2.80;1.40;;;-1.33;100.00;95334.22;636182;221;32233;-72
2021/03/09 06:41:16;;;;;;;191.50;40.63;;;-2.80;1.40;;;-1.37;100.00;95334.25;634794;221;31978;-74
2021/03/09 06:43:47;;;;;;;77.97;26.20;;;-2.90;1.40;;;-1.12;100.00;95333.69;642836;220;23546;-74
2021/03/09 06:46:18;;;;;;;76.27;23.00;;;-2.80;1.40;;;-1.50;100.00;95338.51;640949;220;24505;-73
2021/03/09 06:48:49;;;;;;;125.93;33.03;;;-2.90;1.40;;;-1.15;100.00;95338.37;663108;211;31462;-74
2021/03/09 06:51:33;;;;;;;106.70;28.00;;;-2.70;1.40;;;-1.52;100.00;95343.41;669144;211;23467;-73
2021/03/09 06:54:04;;;;;;;186.80;37.80;;;-2.80;1.40;;;-0.86;100.00;95339.66;664165;211;32079;-73
2021/03/09 06:56:34;;;;;;;111.30;34.25;;;-2.50;1.40;;;-0.51;99.21;95336.66;637120;220;31783;-74
2021/03/09 07:01:44;;;;;;;87.80;32.25;;;-2.20;1.40;;;-0.18;97.40;95339.64;645504;216;31638;-77
2021/03/09 07:04:21;;;;;;;103.33;27.87;;;-2.00;1.40;;;-0.19;96.66;95347.42;642377;220;23469;-77
2021/03/09 07:06:50;;;;;;;112.10;33.33;;;-2.00;1.40;;;-0.15;97.21;95346.08;634819;221;31755;-77
2021/03/09 07:09:19;;;;;;;81.00;30.15;;;-2.00;1.40;;;-0.06;97.83;95349.23;637177;220;42379;-76
2021/03/09 07:11:48;;;;;;;99.37;29.13;;;-1.90;1.40;;;-0.20;97.64;95357.20;640495;221;23499;-77
2021/03/09 07:14:17;;;;;;;80.03;24.33;;;-1.90;1.40;;;-0.32;99.53;95351.73;656132;216;24476;-76
2021/03/09 07:16:48;;;;;;;94.47;25.63;;;-1.90;1.40;;;-0.51;100.00;95357.48;669554;211;28714;-76
2021/03/09 07:19:17;;;;;;;46.33;22.70;;;-2.10;1.40;;;0.16;99.49;95361.45;670251;211;29711;-77
2021/03/09 07:21:46;;;;;;;52.20;20.43;;;-1.60;1.40;;;0.34;96.31;95362.30;668414;211;24955;-77
2021/03/09 07:24:15;;;;;;;128.85;31.62;;;-1.70;1.40;;;0.02;95.79;95359.56;649775;215;31598;-77
2021/03/09 07:26:44;;;;;;;97.33;26.43;;;-1.80;1.40;;;-0.71;99.68;95363.66;653941;216;23444;-78
2021/03/09 07:29:14;;;;;;;81.13;25.40;;;-2.10;1.40;;;-0.45;100.00;95363.86;668422;211;24438;-77
2021/03/09 07:31:43;;;;;;;126.32;32.88;;;-2.00;1.40;;;0.22;100.00;95363.55;663258;211;31404;-76
2021/03/09 07:35:57;;;;;;;196.90;37.78;;;-1.50;1.40;;;0.15;96.88;95360.58;646103;216;31636;-75
2021/03/09 07:38:26;;;;;;;156.43;33.70;;;-1.70;1.40;;;0.08;97.25;95358.66;636520;220;31791;-75
2021/03/09 07:40:55;;;;;;;65.60;24.50;;;-1.60;1.40;;;0.19;99.03;95360.36;642973;220;24571;-75
2021/03/09 07:46:08;;;;;;;81.55;27.08;;;-1.10;1.40;;;1.14;92.65;95367.33;620239;225;32035;-75
2021/03/09 07:48:36;;;;;;;43.97;22.33;;;-1.00;1.40;;;0.96;94.39;95363.38;613465;230;28866;-75
2021/03/09 07:51:05;;;;;;;54.70;21.40;;;-0.90;1.40;;;1.41;92.52;95363.63;613310;230;24717;-76
2021/03/09 07:53:34;;;;;;;38.07;20.50;;;-0.70;1.40;;;1.41;91.32;95362.03;614385;230;24607;-76
2021/03/09 07:56:14;;;;;;;39.17;21.10;;;-0.80;1.40;;;1.35;91.83;95362.33;613239;230;24740;-76
2021/03/09 07:58:41;;;;;;;50.23;21.73;;;-0.70;1.40;;;1.13;91.62;95366.24;612742;230;27828;-74
2021/03/09 08:01:09;;;;;;;46.13;18.20;;;-0.90;1.40;;;1.37;91.65;95361.82;613389;230;24748;-74
2021/03/09 08:03:42;;;;;;;75.87;20.10;;;-0.80;1.40;;;1.41;90.28;95364.00;614000;230;27807;-73
2021/03/09 08:06:11;;;;;;;23.30;16.50;;;-0.90;1.40;;;1.34;90.59;95366.05;612411;230;24630;-73
2021/03/09 08:08:52;;;;;;;23.40;18.97;;;-0.80;1.40;;;1.63;90.51;95364.98;613236;230;28332;-73
2021/03/09 08:11:35;;;;;;;42.92;23.35;;;-0.60;1.40;;;1.85;89.50;95363.48;608765;230;32310;-73
2021/03/09 08:14:19;;;;;;;27.70;19.77;;;-0.50;1.40;;;1.54;91.61;95364.61;613546;230;23576;-74
2021/03/09 08:16:49;;;;;;;33.57;23.80;;;-0.20;1.40;;;2.00;92.03;95362.90;610838;229;34779;-74
2021/03/09 08:19:36;;;;;;;30.85;23.65;;;0.10;1.40;;;2.38;92.64;95360.89;609098;229;32130;-74
2021/03/09 08:22:15;;;;;;;36.28;24.30;;;0.40;1.40;;;2.92;89.56;95359.00;619886;226;32058;-74
2021/03/09 08:24:51;;;;;;;27.70;18.50;;;0.80;1.40;;;2.20;91.51;95354.56;616538;229;23551;-73
2021/03/09 08:27:32;;;;;;;22.93;18.57;;;0.50;1.40;;;2.32;93.21;95358.64;615719;229;26706;-73
2021/03/09 08:30:24;;;;;;;23.87;19.37;;;0.60;1.40;;;2.31;92.63;95362.33;615651;229;24690;-73
2021/03/09 08:35:54;;;;;;;24.20;21.60;;;1.20;1.40;;;4.08;84.52;95354.35;644873;216;32644;-73
2021/03/09 08:38:23;;;;;;;24.70;20.50;;;1.40;1.40;;;3.93;84.21;95361.08;642419;221;26664;-73
2021/03/09 08:43:26;;;;;;;25.35;22.75;;;1.60;1.40;;;3.95;84.60;95360.23;646120;212;42235;-74
2021/03/09 08:45:56;;;;;;;24.97;22.40;;;1.60;1.40;;;4.20;85.29;95354.98;641254;220;23482;-74
2021/03/09 08:48:43;;;;;;;24.57;20.37;;;1.90;1.40;;;4.47;82.10;95355.06;641267;221;24629;-75
2021/03/09 08:51:40;;;;;;;21.77;19.30;;;2.10;1.40;;;4.36;82.51;95355.24;640064;221;24547;-75
2021/03/09 08:54:32;;;;;;;26.40;23.67;;;1.90;1.40;;;4.33;83.12;95352.61;646293;216;39601;-74
2021/03/09 08:57:01;;;;;;;25.83;23.12;;;2.20;1.40;;;4.77;81.54;95349.16;635592;220;42377;-74
2021/03/09 08:59:30;;;;;;;22.57;20.17;;;2.30;1.40;;;4.04;83.12;95355.84;640540;220;23490;-75
2021/03/09 09:02:04;;;;;;;21.67;19.43;;;2.30;1.40;;;4.65;84.29;95354.87;641337;220;24505;-74
2021/03/09 09:04:33;;;;;;;22.20;19.40;;;2.90;1.40;;;4.93;80.21;95357.88;641403;221;24576;-75
2021/03/09 09:07:08;;;;;;;24.93;19.83;;;3.10;1.40;;;5.23;79.27;95353.13;638638;220;24517;-75
2021/03/09 09:09:38;;;;;;;24.83;20.00;;;3.40;1.40;;;6.56;74.61;95354.58;640169;220;24687;-76
2021/03/09 09:12:21;;;;;;;31.50;21.00;;;5.00;1.40;;;8.57;68.72;95346.08;639722;220;24573;-75
2021/03/09 09:15:17;;;;;;;22.07;18.90;;;7.50;1.40;;;9.78;59.26;95349.89;641271;220;24500;-75
2021/03/09 09:17:59;;;;;;;21.85;19.62;;;8.30;1.40;;;11.38;58.04;95347.32;645905;216;31661;-74
2021/03/09 09:20:34;;;;;;;21.27;19.33;;;8.50;1.40;;;11.96;54.46;95341.00;639299;221;23473;-74
2021/03/09 09:23:21;;;;;;;20.93;18.90;;;8.70;1.40;;;12.69;50.88;95340.23;641709;220;24603;-74
2021/03/09 09:25:50;;;;;;;19.77;17.70;;;8.40;1.40;;;13.12;53.98;95338.85;641040;219;24727;-74
2021/03/09 09:28:38;;;;;;;18.70;16.90;;;9.00;1.40;;;13.86;51.76;95336.00;637081;223;24528;-74
2021/03/09 09:31:09;;;;;;;19.20;17.30;;;9.50;1.40;;;14.73;51.74;95333.78;650890;215;31693;-75
2021/03/09 09:35:51;;;;;;;17.45;15.95;;;10.20;1.40;;;15.02;47.87;95340.22;647401;216;31647;-75
2021/03/09 09:38:20;;;;;;;20.00;18.20;;;10.90;1.40;;;15.63;47.87;95340.73;640459;220;22519;-75
2021/03/09 09:40:49;;;;;;;18.70;16.80;;;10.40;1.40;;;15.92;45.83;95340.39;640985;221;25646;-75
2021/03/09 09:43:19;;;;;;;18.40;16.70;;;11.30;1.40;;;14.54;42.30;95334.35;640877;221;28807;-75
2021/03/09 09:45:51;;;;;;;18.20;16.60;;;11.90;1.40;;;15.58;44.86;95333.86;641891;221;24520;-75
2021/03/09 09:48:21;;;;;;;16.47;15.07;;;12.40;1.40;;;14.98;46.67;95329.23;639916;221;24561;-75
2021/03/09 09:50:53;;;;;;;18.50;16.90;;;12.00;1.40;;;16.84;48.31;95329.55;644988;218;31657;-76
2021/03/09 09:53:30;;;;;;;17.67;16.20;;;12.40;1.40;;;17.42;41.71;95322.77;646708;220;22443;-76
2021/03/09 09:55:59;;;;;;;18.47;16.87;;;12.10;1.40;;;17.72;41.43;95325.11;669507;211;23444;-75
2021/03/09 09:58:42;;;;;;;18.02;16.37;;;12.00;1.40;;;18.67;41.94;95325.80;663951;211;31439;-74
2021/03/09 10:01:13;;;;;;;19.40;17.40;;;12.80;1.40;;;19.51;40.19;95325.19;669082;211;22410;-74
2021/03/09 10:03:54;;;;;;;19.43;17.70;;;13.30;1.40;;;18.15;35.94;95325.72;669838;211;23517;-75
2021/03/09 10:06:24;;;;;;;17.40;15.80;;;12.80;1.40;;;19.34;38.01;95322.95;670055;211;23442;-75
2021/03/09 10:08:52;;;;;;;18.20;16.70;;;13.10;1.40;;;19.22;40.29;95323.95;668031;211;28898;-76
2021/03/09 10:11:21;;;;;;;19.47;17.73;;;13.50;1.40;;;18.04;40.42;95321.97;669852;211;23439;-75
2021/03/09 10:16:35;;;;;;;16.80;15.40;;;13.00;1.40;;;18.35;39.02;95318.58;647519;216;31683;-76
2021/03/09 10:19:04;;;;;;;18.12;16.42;;;12.80;1.40;;;21.21;35.45;95318.41;635806;220;31819;-77
2021/03/09 10:21:34;;;;;;;18.13;16.43;;;13.40;1.40;;;19.47;35.78;95318.14;640819;220;22497;-77
2021/03/09 10:24:03;;;;;;;17.93;16.47;;;12.00;1.40;;;19.13;37.07;95316.46;639946;221;27318;-77
2021/03/09 10:26:33;;;;;;;16.77;15.27;;;12.50;1.40;;;20.05;33.65;95319.77;644944;216;28859;-77
2021/03/09 10:29:17;;;;;;;16.57;15.17;;;13.50;1.40;;;19.47;37.24;95315.80;641430;220;23543;-77
2021/03/09 10:31:59;;;;;;;17.83;16.23;;;13.70;1.40;;;19.64;34.54;95311.47;642722;220;27878;-77
2021/03/09 10:36:05;;;;;;;16.30;15.00;;;13.70;1.40;;;19.95;35.75;95311.30;647985;216;31636;-77
2021/03/09 10:38:33;;;;;;;15.60;14.30;;;12.90;1.40;;;20.00;34.30;95308.66;642686;220;24654;-77
2021/03/09 10:41:02;;;;;;;16.57;15.03;;;12.60;1.40;;;18.36;32.81;95303.47;639436;221;25904;-77
2021/03/09 10:43:42;;;;;;;16.13;14.63;;;12.20;1.40;;;17.47;37.23;95304.41;640619;220;23584;-77
2021/03/09 10:46:11;;;;;;;16.70;15.10;;;11.30;1.40;;;17.63;36.17;95302.95;640238;221;23525;-77
2021/03/09 10:48:40;;;;;;;16.00;14.57;;;11.20;1.40;;;16.75;36.14;95302.34;639954;220;23941;-77
2021/03/09 10:51:17;;;;;;;16.03;14.33;;;11.80;1.40;;;14.99;41.66;95305.03;640197;221;23548;-76
2021/03/09 10:53:46;;;;;;;16.13;14.70;;;11.60;1.40;;;15.16;36.88;95306.30;628670;221;23732;-76
2021/03/09 10:56:15;;;;;;;15.67;14.17;;;11.80;1.40;;;15.09;38.20;95307.64;640653;220;24537;-76
2021/03/09 10:58:44;;;;;;;16.00;14.50;;;11.10;1.40;;;16.79;36.84;95303.11;641178;220;23545;-76
2021/03/09 11:01:13;;;;;;;15.13;13.53;;;11.50;1.40;;;17.61;37.92;95306.94;642168;220;23562;-76
2021/03/09 11:03:42;;;;;;;14.30;13.00;;;11.80;1.40;;;18.56;34.47;95308.91;636289;220;31743;-76
2021/03/09 11:06:11;;;;;;;15.93;14.33;;;12.40;1.40;;;17.61;34.69;95307.47;649742;219;22624;-77
2021/03/09 11:08:40;;;;;;;13.43;12.20;;;12.50;1.40;;;16.95;33.52;95309.33;669994;211;24427;-76
2021/03/09 11:11:10;;;;;;;14.40;12.90;;;12.70;1.40;;;17.04;33.96;95308.67;667677;211;23433;-76
2021/03/09 11:13:39;;;;;;;13.23;12.03;;;12.40;1.40;;;19.12;31.39;95301.87;668682;211;23458;-76